sensor_id;sensor_type;location;lat;lon;timestamp;temperature;humidity
17998;DHT22;9124;48.144;17.098;2023-02-28T00:02:16;1.90;56.00
17998;DHT22;9124;48.144;17.098;2023-02-28T00:05:53;1.90;56.10
17998;DHT22;9124;48.144;17.098;2023-02-28T00:09:30;1.90;56.10
17998;DHT22;9124;48.144;17.098;2023-02-28T00:13:07;1.90;56.20
17998;DHT22;9124;48.144;17.098;2023-02-28T00:16:43;1.90;56.20
17998;DHT22;9124;48.144;17.098;2023-02-28T00:20:20;1.90;56.20
17998;DHT22;9124;48.144;17.098;2023-02-28T00:23:57;1.90;56.20
17998;DHT22;9124;48.144;17.098;2023-02-28T00:27:34;1.90;56.30
17998;DHT22;9124;48.144;17.098;2023-02-28T00:31:14;1.90;56.30
17998;DHT22;9124;48.144;17.098;2023-02-28T00:34:50;1.90;56.40
17998;DHT22;9124;48.144;17.098;2023-02-28T00:38:27;1.90;56.40
17998;DHT22;9124;48.144;17.098;2023-02-28T00:42:04;1.90;56.50
17998;DHT22;9124;48.144;17.098;2023-02-28T00:45:42;1.90;56.60
17998;DHT22;9124;48.144;17.098;2023-02-28T00:49:18;1.90;56.60
17998;DHT22;9124;48.144;17.098;2023-02-28T00:52:55;1.90;56.60
17998;DHT22;9124;48.144;17.098;2023-02-28T00:56:31;1.80;56.60
17998;DHT22;9124;48.144;17.098;2023-02-28T01:00:10;1.80;56.80
17998;DHT22;9124;48.144;17.098;2023-02-28T01:03:47;1.80;56.80
17998;DHT22;9124;48.144;17.098;2023-02-28T01:07:24;1.70;56.90
17998;DHT22;9124;48.144;17.098;2023-02-28T01:11:12;1.70;57.00
17998;DHT22;9124;48.144;17.098;2023-02-28T01:14:50;1.60;57.00
17998;DHT22;9124;48.144;17.098;2023-02-28T01:18:26;1.60;57.10
17998;DHT22;9124;48.144;17.098;2023-02-28T01:22:04;1.60;57.10
17998;DHT22;9124;48.144;17.098;2023-02-28T01:25:42;1.60;57.30
17998;DHT22;9124;48.144;17.098;2023-02-28T01:29:18;1.60;57.40
17998;DHT22;9124;48.144;17.098;2023-02-28T01:32:55;1.50;57.40
17998;DHT22;9124;48.144;17.098;2023-02-28T01:36:32;1.40;57.50
17998;DHT22;9124;48.144;17.098;2023-02-28T01:40:09;1.40;57.50
17998;DHT22;9124;48.144;17.098;2023-02-28T01:47:34;1.40;57.70
17998;DHT22;9124;48.144;17.098;2023-02-28T01:51:15;1.50;57.70
17998;DHT22;9124;48.144;17.098;2023-02-28T01:54:58;1.50;57.80
17998;DHT22;9124;48.144;17.098;2023-02-28T01:58:36;1.50;57.80
17998;DHT22;9124;48.144;17.098;2023-02-28T02:02:14;1.50;57.90
17998;DHT22;9124;48.144;17.098;2023-02-28T02:05:51;1.50;58.00
17998;DHT22;9124;48.144;17.098;2023-02-28T02:09:27;1.50;58.00
17998;DHT22;9124;48.144;17.098;2023-02-28T02:25:12;1.20;58.10
17998;DHT22;9124;48.144;17.098;2023-02-28T02:36:53;0.80;58.40
17998;DHT22;9124;48.144;17.098;2023-02-28T02:40:48;0.70;58.40
17998;DHT22;9124;48.144;17.098;2023-02-28T02:44:35;0.60;58.70
17998;DHT22;9124;48.144;17.098;2023-02-28T02:48:16;0.50;58.80
17998;DHT22;9124;48.144;17.098;2023-02-28T02:51:56;0.40;58.80
17998;DHT22;9124;48.144;17.098;2023-02-28T02:55:40;0.40;59.00
17998;DHT22;9124;48.144;17.098;2023-02-28T02:59:21;0.40;59.10
17998;DHT22;9124;48.144;17.098;2023-02-28T03:02:59;0.40;59.20
17998;DHT22;9124;48.144;17.098;2023-02-28T03:06:37;0.40;59.40
17998;DHT22;9124;48.144;17.098;2023-02-28T03:10:32;0.40;59.50
17998;DHT22;9124;48.144;17.098;2023-02-28T03:19:03;0.40;59.90
17998;DHT22;9124;48.144;17.098;2023-02-28T03:26:29;0.40;60.00
17998;DHT22;9124;48.144;17.098;2023-02-28T03:30:13;0.40;60.10
17998;DHT22;9124;48.144;17.098;2023-02-28T03:33:55;0.40;60.10
17998;DHT22;9124;48.144;17.098;2023-02-28T03:37:36;0.30;60.20
17998;DHT22;9124;48.144;17.098;2023-02-28T03:41:21;0.30;60.30
17998;DHT22;9124;48.144;17.098;2023-02-28T03:45:05;0.40;60.50
17998;DHT22;9124;48.144;17.098;2023-02-28T03:48:55;0.30;60.60
17998;DHT22;9124;48.144;17.098;2023-02-28T03:52:41;0.30;60.60
17998;DHT22;9124;48.144;17.098;2023-02-28T03:56:24;0.20;60.80
17998;DHT22;9124;48.144;17.098;2023-02-28T04:00:19;0.10;60.70
17998;DHT22;9124;48.144;17.098;2023-02-28T04:03:56;0.00;61.00
17998;DHT22;9124;48.144;17.098;2023-02-28T04:07:33;-0.20;60.80
17998;DHT22;9124;48.144;17.098;2023-02-28T04:15:04;-0.30;61.30
17998;DHT22;9124;48.144;17.098;2023-02-28T04:18:42;-0.40;61.50
17998;DHT22;9124;48.144;17.098;2023-02-28T04:22:21;-0.40;61.90
17998;DHT22;9124;48.144;17.098;2023-02-28T04:25:58;-0.50;61.80
17998;DHT22;9124;48.144;17.098;2023-02-28T04:29:34;-0.50;62.00
17998;DHT22;9124;48.144;17.098;2023-02-28T04:33:11;-0.50;62.10
17998;DHT22;9124;48.144;17.098;2023-02-28T04:36:48;-0.60;62.30
17998;DHT22;9124;48.144;17.098;2023-02-28T04:40:30;-0.60;62.30
17998;DHT22;9124;48.144;17.098;2023-02-28T04:44:06;-0.60;62.20
17998;DHT22;9124;48.144;17.098;2023-02-28T04:47:43;-0.60;62.20
17998;DHT22;9124;48.144;17.098;2023-02-28T04:51:19;-0.70;62.30
17998;DHT22;9124;48.144;17.098;2023-02-28T04:54:56;-0.60;62.50
17998;DHT22;9124;48.144;17.098;2023-02-28T04:58:33;-0.60;62.60
17998;DHT22;9124;48.144;17.098;2023-02-28T05:02:09;-0.60;62.70
17998;DHT22;9124;48.144;17.098;2023-02-28T05:05:46;-0.60;62.70
17998;DHT22;9124;48.144;17.098;2023-02-28T05:09:22;-0.60;62.70
17998;DHT22;9124;48.144;17.098;2023-02-28T05:12:59;-0.60;62.80
17998;DHT22;9124;48.144;17.098;2023-02-28T05:16:35;-0.60;62.90
17998;DHT22;9124;48.144;17.098;2023-02-28T05:20:12;-0.60;62.90
17998;DHT22;9124;48.144;17.098;2023-02-28T05:23:49;-0.40;63.10
17998;DHT22;9124;48.144;17.098;2023-02-28T05:27:25;-0.40;63.00
17998;DHT22;9124;48.144;17.098;2023-02-28T05:31:04;-0.20;63.30
17998;DHT22;9124;48.144;17.098;2023-02-28T05:34:41;-0.20;63.10
17998;DHT22;9124;48.144;17.098;2023-02-28T05:38:18;-0.10;63.30
17998;DHT22;9124;48.144;17.098;2023-02-28T05:41:54;0.00;63.40
17998;DHT22;9124;48.144;17.098;2023-02-28T05:45:31;0.10;63.40
17998;DHT22;9124;48.144;17.098;2023-02-28T05:49:07;0.30;63.40
17998;DHT22;9124;48.144;17.098;2023-02-28T05:52:43;0.30;63.40
17998;DHT22;9124;48.144;17.098;2023-02-28T05:56:20;0.40;63.30
17998;DHT22;9124;48.144;17.098;2023-02-28T05:59:57;0.40;63.30
17998;DHT22;9124;48.144;17.098;2023-02-28T06:03:33;0.50;63.30
17998;DHT22;9124;48.144;17.098;2023-02-28T06:07:10;0.60;63.40
17998;DHT22;9124;48.144;17.098;2023-02-28T06:10:47;0.60;63.30
17998;DHT22;9124;48.144;17.098;2023-02-28T06:14:23;0.80;63.50
17998;DHT22;9124;48.144;17.098;2023-02-28T06:17:59;0.90;63.40
17998;DHT22;9124;48.144;17.098;2023-02-28T06:21:36;1.10;63.50
17998;DHT22;9124;48.144;17.098;2023-02-28T06:25:12;1.30;63.50
17998;DHT22;9124;48.144;17.098;2023-02-28T06:28:49;1.50;63.50
17998;DHT22;9124;48.144;17.098;2023-02-28T06:32:25;1.80;63.40
17998;DHT22;9124;48.144;17.098;2023-02-28T06:36:02;1.80;63.70
17998;DHT22;9124;48.144;17.098;2023-02-28T06:39:39;1.90;63.20
17998;DHT22;9124;48.144;17.098;2023-02-28T06:43:16;2.10;63.70
17998;DHT22;9124;48.144;17.098;2023-02-28T06:46:52;2.20;62.90
17998;DHT22;9124;48.144;17.098;2023-02-28T06:50:28;2.30;62.80
17998;DHT22;9124;48.144;17.098;2023-02-28T06:54:06;2.50;62.80
17998;DHT22;9124;48.144;17.098;2023-02-28T06:57:45;3.60;62.60
17998;DHT22;9124;48.144;17.098;2023-02-28T07:01:21;4.30;61.80
17998;DHT22;9124;48.144;17.098;2023-02-28T07:04:59;4.70;61.80
17998;DHT22;9124;48.144;17.098;2023-02-28T07:08:36;5.10;61.40
17998;DHT22;9124;48.144;17.098;2023-02-28T07:12:12;5.00;61.10
17998;DHT22;9124;48.144;17.098;2023-02-28T07:16:00;4.70;60.50
17998;DHT22;9124;48.144;17.098;2023-02-28T07:19:37;4.60;60.30
17998;DHT22;9124;48.144;17.098;2023-02-28T07:23:14;4.30;60.20
17998;DHT22;9124;48.144;17.098;2023-02-28T07:26:50;4.00;60.20
17998;DHT22;9124;48.144;17.098;2023-02-28T07:30:26;3.70;60.30
17998;DHT22;9124;48.144;17.098;2023-02-28T07:34:02;3.50;60.30
17998;DHT22;9124;48.144;17.098;2023-02-28T07:37:39;3.20;60.40
17998;DHT22;9124;48.144;17.098;2023-02-28T07:41:18;3.20;60.50
17998;DHT22;9124;48.144;17.098;2023-02-28T07:44:55;3.20;60.60
17998;DHT22;9124;48.144;17.098;2023-02-28T07:48:31;3.10;60.60
17998;DHT22;9124;48.144;17.098;2023-02-28T07:52:08;3.10;60.70
17998;DHT22;9124;48.144;17.098;2023-02-28T07:55:44;3.10;60.70
17998;DHT22;9124;48.144;17.098;2023-02-28T07:59:21;3.10;60.80
17998;DHT22;9124;48.144;17.098;2023-02-28T08:02:58;3.30;60.90
17998;DHT22;9124;48.144;17.098;2023-02-28T08:06:34;3.50;60.80
17998;DHT22;9124;48.144;17.098;2023-02-28T08:10:11;3.50;60.80
17998;DHT22;9124;48.144;17.098;2023-02-28T08:13:47;3.70;60.80
17998;DHT22;9124;48.144;17.098;2023-02-28T08:17:24;3.90;60.80
17998;DHT22;9124;48.144;17.098;2023-02-28T08:21:09;4.10;60.80
17998;DHT22;9124;48.144;17.098;2023-02-28T08:24:46;4.30;60.60
17998;DHT22;9124;48.144;17.098;2023-02-28T08:28:23;4.90;61.00
17998;DHT22;9124;48.144;17.098;2023-02-28T08:31:59;8.10;64.10
17998;DHT22;9124;48.144;17.098;2023-02-28T08:35:37;11.80;65.40
17998;DHT22;9124;48.144;17.098;2023-02-28T08:39:13;14.70;63.50
17998;DHT22;9124;48.144;17.098;2023-02-28T08:42:49;16.70;59.60
17998;DHT22;9124;48.144;17.098;2023-02-28T08:46:26;18.10;57.80
17998;DHT22;9124;48.144;17.098;2023-02-28T08:50:04;19.50;56.00
17998;DHT22;9124;48.144;17.098;2023-02-28T08:53:41;20.60;53.60
17998;DHT22;9124;48.144;17.098;2023-02-28T08:57:17;21.50;51.70
17998;DHT22;9124;48.144;17.098;2023-02-28T09:00:54;21.60;50.20
17998;DHT22;9124;48.144;17.098;2023-02-28T09:04:30;21.50;47.70
17998;DHT22;9124;48.144;17.098;2023-02-28T09:08:07;21.70;47.40
17998;DHT22;9124;48.144;17.098;2023-02-28T09:11:43;22.00;46.40
17998;DHT22;9124;48.144;17.098;2023-02-28T09:15:20;22.60;45.90
17998;DHT22;9124;48.144;17.098;2023-02-28T09:18:57;23.20;44.20
17998;DHT22;9124;48.144;17.098;2023-02-28T09:22:33;24.40;43.40
17998;DHT22;9124;48.144;17.098;2023-02-28T09:26:20;22.90;41.40
17998;DHT22;9124;48.144;17.098;2023-02-28T09:29:58;21.60;40.60
17998;DHT22;9124;48.144;17.098;2023-02-28T09:33:34;22.40;41.80
17998;DHT22;9124;48.144;17.098;2023-02-28T09:37:11;22.10;41.30
17998;DHT22;9124;48.144;17.098;2023-02-28T09:40:51;22.40;40.40
17998;DHT22;9124;48.144;17.098;2023-02-28T09:44:33;22.80;39.80
17998;DHT22;9124;48.144;17.098;2023-02-28T09:48:24;22.90;39.50
17998;DHT22;9124;48.144;17.098;2023-02-28T09:52:09;24.80;39.00
17998;DHT22;9124;48.144;17.098;2023-02-28T09:55:51;26.20;38.10
17998;DHT22;9124;48.144;17.098;2023-02-28T10:03:36;26.00;36.30
17998;DHT22;9124;48.144;17.098;2023-02-28T10:11:33;24.90;34.20
17998;DHT22;9124;48.144;17.098;2023-02-28T10:15:15;25.90;35.00
17998;DHT22;9124;48.144;17.098;2023-02-28T10:19:02;27.40;34.60
17998;DHT22;9124;48.144;17.098;2023-02-28T10:23:34;27.50;33.30
17998;DHT22;9124;48.144;17.098;2023-02-28T10:26:52;27.20;32.90
17998;DHT22;9124;48.144;17.098;2023-02-28T10:30:35;27.60;32.70
17998;DHT22;9124;48.144;17.098;2023-02-28T10:34:13;24.10;31.00
17998;DHT22;9124;48.144;17.098;2023-02-28T10:37:54;21.40;31.40
17998;DHT22;9124;48.144;17.098;2023-02-28T10:41:32;21.60;32.60
17998;DHT22;9124;48.144;17.098;2023-02-28T10:45:17;20.70;32.30
17998;DHT22;9124;48.144;17.098;2023-02-28T10:49:17;20.50;32.60
17998;DHT22;9124;48.144;17.098;2023-02-28T10:53:07;19.90;32.00
17998;DHT22;9124;48.144;17.098;2023-02-28T11:01:43;19.00;32.50
17998;DHT22;9124;48.144;17.098;2023-02-28T11:05:36;18.80;32.90
17998;DHT22;9124;48.144;17.098;2023-02-28T11:09:39;19.10;33.00
17998;DHT22;9124;48.144;17.098;2023-02-28T11:13:20;19.10;32.70
17998;DHT22;9124;48.144;17.098;2023-02-28T11:17:11;19.40;32.90
17998;DHT22;9124;48.144;17.098;2023-02-28T11:20:55;20.20;32.40
17998;DHT22;9124;48.144;17.098;2023-02-28T11:24:40;20.00;32.40
17998;DHT22;9124;48.144;17.098;2023-02-28T11:28:26;20.50;32.30
17998;DHT22;9124;48.144;17.098;2023-02-28T11:32:22;20.60;31.70
17998;DHT22;9124;48.144;17.098;2023-02-28T11:36:07;19.80;30.90
17998;DHT22;9124;48.144;17.098;2023-02-28T11:39:46;18.20;30.20
17998;DHT22;9124;48.144;17.098;2023-02-28T11:58:44;8.70;34.30
17998;DHT22;9124;48.144;17.098;2023-02-28T12:02:32;8.30;34.80
17998;DHT22;9124;48.144;17.098;2023-02-28T12:10:22;7.70;35.90
17998;DHT22;9124;48.144;17.098;2023-02-28T12:18:26;7.20;36.20
17998;DHT22;9124;48.144;17.098;2023-02-28T12:26:31;7.10;37.40
17998;DHT22;9124;48.144;17.098;2023-02-28T12:33:53;7.00;37.70
17998;DHT22;9124;48.144;17.098;2023-02-28T12:37:52;6.90;37.90
17998;DHT22;9124;48.144;17.098;2023-02-28T12:42:00;6.90;38.50
17998;DHT22;9124;48.144;17.098;2023-02-28T12:45:59;6.90;38.70
17998;DHT22;9124;48.144;17.098;2023-02-28T12:49:41;6.80;38.80
17998;DHT22;9124;48.144;17.098;2023-02-28T13:09:16;7.00;39.80
17998;DHT22;9124;48.144;17.098;2023-02-28T13:12:55;6.80;39.90
17998;DHT22;9124;48.144;17.098;2023-02-28T13:20:47;6.60;41.40
17998;DHT22;9124;48.144;17.098;2023-02-28T13:24:38;6.50;40.80
17998;DHT22;9124;48.144;17.098;2023-02-28T13:32:33;6.50;41.00
17998;DHT22;9124;48.144;17.098;2023-02-28T13:44:18;6.40;41.30
17998;DHT22;9124;48.144;17.098;2023-02-28T13:47:58;6.40;41.60
17998;DHT22;9124;48.144;17.098;2023-02-28T13:51:40;6.40;41.40
17998;DHT22;9124;48.144;17.098;2023-02-28T13:55:26;6.30;41.60
17998;DHT22;9124;48.144;17.098;2023-02-28T14:00:05;6.30;41.60
17998;DHT22;9124;48.144;17.098;2023-02-28T14:07:59;6.30;41.70
17998;DHT22;9124;48.144;17.098;2023-02-28T14:11:41;6.30;42.40
17998;DHT22;9124;48.144;17.098;2023-02-28T14:19:29;6.20;42.30
17998;DHT22;9124;48.144;17.098;2023-02-28T14:27:15;6.10;42.70
17998;DHT22;9124;48.144;17.098;2023-02-28T14:31:43;6.00;42.70
17998;DHT22;9124;48.144;17.098;2023-02-28T14:38:58;6.00;43.10
17998;DHT22;9124;48.144;17.098;2023-02-28T14:42:37;6.00;43.10
17998;DHT22;9124;48.144;17.098;2023-02-28T14:46:25;6.00;43.00
17998;DHT22;9124;48.144;17.098;2023-02-28T14:50:04;6.00;42.90
17998;DHT22;9124;48.144;17.098;2023-02-28T14:53:41;5.90;43.20
17998;DHT22;9124;48.144;17.098;2023-02-28T14:57:41;5.90;43.30
17998;DHT22;9124;48.144;17.098;2023-02-28T15:01:24;5.90;43.30
17998;DHT22;9124;48.144;17.098;2023-02-28T15:09:15;6.30;43.60
17998;DHT22;9124;48.144;17.098;2023-02-28T15:13:02;6.40;43.50
17998;DHT22;9124;48.144;17.098;2023-02-28T15:16:42;6.20;43.30
17998;DHT22;9124;48.144;17.098;2023-02-28T15:20:21;6.00;44.10
17998;DHT22;9124;48.144;17.098;2023-02-28T15:24:15;5.80;43.50
17998;DHT22;9124;48.144;17.098;2023-02-28T15:27:55;5.70;44.00
17998;DHT22;9124;48.144;17.098;2023-02-28T15:31:44;5.60;43.80
17998;DHT22;9124;48.144;17.098;2023-02-28T15:35:28;5.50;43.90
17998;DHT22;9124;48.144;17.098;2023-02-28T15:39:27;5.40;44.00
17998;DHT22;9124;48.144;17.098;2023-02-28T15:43:32;5.20;44.20
17998;DHT22;9124;48.144;17.098;2023-02-28T15:47:24;5.10;44.10
17998;DHT22;9124;48.144;17.098;2023-02-28T15:51:31;5.00;44.40
17998;DHT22;9124;48.144;17.098;2023-02-28T15:55:22;5.00;44.50
17998;DHT22;9124;48.144;17.098;2023-02-28T15:59:01;4.90;44.50
17998;DHT22;9124;48.144;17.098;2023-02-28T16:02:39;4.80;44.60
17998;DHT22;9124;48.144;17.098;2023-02-28T16:09:52;4.60;44.70
17998;DHT22;9124;48.144;17.098;2023-02-28T16:13:29;4.50;44.80
17998;DHT22;9124;48.144;17.098;2023-02-28T16:17:12;4.50;45.00
17998;DHT22;9124;48.144;17.098;2023-02-28T16:20:50;4.40;45.00
17998;DHT22;9124;48.144;17.098;2023-02-28T16:24:26;4.30;45.00
17998;DHT22;9124;48.144;17.098;2023-02-28T16:28:03;4.20;45.20
17998;DHT22;9124;48.144;17.098;2023-02-28T16:31:41;4.20;45.30
17998;DHT22;9124;48.144;17.098;2023-02-28T16:35:18;4.10;45.40
17998;DHT22;9124;48.144;17.098;2023-02-28T16:38:55;4.10;45.60
17998;DHT22;9124;48.144;17.098;2023-02-28T16:42:32;4.00;45.70
17998;DHT22;9124;48.144;17.098;2023-02-28T16:46:11;4.00;45.80
17998;DHT22;9124;48.144;17.098;2023-02-28T16:49:47;3.90;45.80
17998;DHT22;9124;48.144;17.098;2023-02-28T16:53:23;3.90;45.90
17998;DHT22;9124;48.144;17.098;2023-02-28T16:57:00;3.80;45.90
17998;DHT22;9124;48.144;17.098;2023-02-28T17:00:36;3.70;45.90
17998;DHT22;9124;48.144;17.098;2023-02-28T17:04:12;3.70;46.20
17998;DHT22;9124;48.144;17.098;2023-02-28T17:07:50;3.70;46.30
17998;DHT22;9124;48.144;17.098;2023-02-28T17:11:27;3.70;46.20
17998;DHT22;9124;48.144;17.098;2023-02-28T17:15:04;3.60;46.30
17998;DHT22;9124;48.144;17.098;2023-02-28T17:18:42;3.50;46.30
17998;DHT22;9124;48.144;17.098;2023-02-28T17:22:19;3.50;46.40
17998;DHT22;9124;48.144;17.098;2023-02-28T17:25:55;3.40;46.40
17998;DHT22;9124;48.144;17.098;2023-02-28T17:29:31;3.30;46.70
17998;DHT22;9124;48.144;17.098;2023-02-28T17:33:07;3.20;46.50
17998;DHT22;9124;48.144;17.098;2023-02-28T17:36:45;3.20;46.60
17998;DHT22;9124;48.144;17.098;2023-02-28T17:40:23;3.10;46.70
17998;DHT22;9124;48.144;17.098;2023-02-28T17:43:59;3.00;46.80
17998;DHT22;9124;48.144;17.098;2023-02-28T17:47:36;2.90;47.00
17998;DHT22;9124;48.144;17.098;2023-02-28T17:51:14;2.90;47.10
17998;DHT22;9124;48.144;17.098;2023-02-28T17:54:50;2.90;47.30
17998;DHT22;9124;48.144;17.098;2023-02-28T17:58:26;2.90;47.30
17998;DHT22;9124;48.144;17.098;2023-02-28T18:02:03;3.00;47.50
17998;DHT22;9124;48.144;17.098;2023-02-28T18:05:40;3.10;47.50
17998;DHT22;9124;48.144;17.098;2023-02-28T18:09:19;3.20;47.60
17998;DHT22;9124;48.144;17.098;2023-02-28T18:12:59;3.20;47.70
17998;DHT22;9124;48.144;17.098;2023-02-28T18:16:35;3.30;47.70
17998;DHT22;9124;48.144;17.098;2023-02-28T18:20:11;3.30;47.70
17998;DHT22;9124;48.144;17.098;2023-02-28T18:23:48;3.20;47.80
17998;DHT22;9124;48.144;17.098;2023-02-28T18:27:25;3.20;47.90
17998;DHT22;9124;48.144;17.098;2023-02-28T18:31:06;3.20;47.90
17998;DHT22;9124;48.144;17.098;2023-02-28T18:34:42;3.10;48.10
17998;DHT22;9124;48.144;17.098;2023-02-28T18:38:18;3.10;48.10
17998;DHT22;9124;48.144;17.098;2023-02-28T18:41:55;3.00;48.10
17998;DHT22;9124;48.144;17.098;2023-02-28T18:45:35;3.00;48.20
17998;DHT22;9124;48.144;17.098;2023-02-28T18:49:12;3.00;48.30
17998;DHT22;9124;48.144;17.098;2023-02-28T18:52:48;3.00;48.40
17998;DHT22;9124;48.144;17.098;2023-02-28T18:56:26;3.00;48.40
17998;DHT22;9124;48.144;17.098;2023-02-28T19:00:03;2.90;48.40
17998;DHT22;9124;48.144;17.098;2023-02-28T19:03:39;2.90;48.50
17998;DHT22;9124;48.144;17.098;2023-02-28T19:07:16;2.80;48.50
17998;DHT22;9124;48.144;17.098;2023-02-28T19:10:52;2.70;48.60
17998;DHT22;9124;48.144;17.098;2023-02-28T19:14:28;2.60;48.60
17998;DHT22;9124;48.144;17.098;2023-02-28T19:18:05;2.50;48.80
17998;DHT22;9124;48.144;17.098;2023-02-28T19:21:41;2.30;48.70
17998;DHT22;9124;48.144;17.098;2023-02-28T19:25:17;2.20;48.80
17998;DHT22;9124;48.144;17.098;2023-02-28T19:28:54;2.20;48.90
17998;DHT22;9124;48.144;17.098;2023-02-28T19:32:31;2.10;49.00
17998;DHT22;9124;48.144;17.098;2023-02-28T19:36:09;2.00;49.00
17998;DHT22;9124;48.144;17.098;2023-02-28T19:39:48;1.90;49.10
17998;DHT22;9124;48.144;17.098;2023-02-28T19:43:25;1.90;49.20
17998;DHT22;9124;48.144;17.098;2023-02-28T19:47:01;1.90;49.30
17998;DHT22;9124;48.144;17.098;2023-02-28T19:50:38;1.90;49.30
17998;DHT22;9124;48.144;17.098;2023-02-28T19:54:16;1.90;49.40
17998;DHT22;9124;48.144;17.098;2023-02-28T19:57:53;1.80;49.50
17998;DHT22;9124;48.144;17.098;2023-02-28T20:01:29;1.80;49.50
17998;DHT22;9124;48.144;17.098;2023-02-28T20:05:06;1.80;49.60
17998;DHT22;9124;48.144;17.098;2023-02-28T20:08:42;1.90;49.70
17998;DHT22;9124;48.144;17.098;2023-02-28T20:12:19;1.90;49.70
17998;DHT22;9124;48.144;17.098;2023-02-28T20:16:00;1.80;49.70
17998;DHT22;9124;48.144;17.098;2023-02-28T20:19:37;1.80;49.80
17998;DHT22;9124;48.144;17.098;2023-02-28T20:23:14;1.80;49.80
17998;DHT22;9124;48.144;17.098;2023-02-28T20:26:51;1.90;50.00
17998;DHT22;9124;48.144;17.098;2023-02-28T20:30:28;1.90;50.00
17998;DHT22;9124;48.144;17.098;2023-02-28T20:34:04;1.90;50.10
17998;DHT22;9124;48.144;17.098;2023-02-28T20:37:41;1.90;50.10
17998;DHT22;9124;48.144;17.098;2023-02-28T20:41:17;1.90;50.10
17998;DHT22;9124;48.144;17.098;2023-02-28T20:44:54;1.90;50.20
17998;DHT22;9124;48.144;17.098;2023-02-28T20:48:31;1.80;50.20
17998;DHT22;9124;48.144;17.098;2023-02-28T20:52:08;1.80;50.30
17998;DHT22;9124;48.144;17.098;2023-02-28T20:56:22;1.70;50.40
17998;DHT22;9124;48.144;17.098;2023-02-28T21:00:02;1.70;50.60
17998;DHT22;9124;48.144;17.098;2023-02-28T21:03:38;1.70;50.50
17998;DHT22;9124;48.144;17.098;2023-02-28T21:07:15;1.70;50.50
17998;DHT22;9124;48.144;17.098;2023-02-28T21:10:51;1.70;50.60
17998;DHT22;9124;48.144;17.098;2023-02-28T21:14:27;1.70;50.70
17998;DHT22;9124;48.144;17.098;2023-02-28T21:18:06;1.70;50.80
17998;DHT22;9124;48.144;17.098;2023-02-28T21:21:48;1.70;50.80
17998;DHT22;9124;48.144;17.098;2023-02-28T21:25:25;1.70;50.80
17998;DHT22;9124;48.144;17.098;2023-02-28T21:29:02;1.60;50.80
17998;DHT22;9124;48.144;17.098;2023-02-28T21:32:38;1.60;51.00
17998;DHT22;9124;48.144;17.098;2023-02-28T21:36:17;1.60;51.00
17998;DHT22;9124;48.144;17.098;2023-02-28T21:39:54;1.40;51.10
17998;DHT22;9124;48.144;17.098;2023-02-28T21:43:30;1.40;51.20
17998;DHT22;9124;48.144;17.098;2023-02-28T21:47:06;1.30;51.30
17998;DHT22;9124;48.144;17.098;2023-02-28T21:50:42;1.20;51.30
17998;DHT22;9124;48.144;17.098;2023-02-28T21:54:29;1.20;51.50
17998;DHT22;9124;48.144;17.098;2023-02-28T21:58:05;1.10;51.50
17998;DHT22;9124;48.144;17.098;2023-02-28T22:01:42;1.00;51.60
17998;DHT22;9124;48.144;17.098;2023-02-28T22:05:19;1.00;51.70
17998;DHT22;9124;48.144;17.098;2023-02-28T22:08:57;0.90;51.70
17998;DHT22;9124;48.144;17.098;2023-02-28T22:12:33;0.90;51.90
17998;DHT22;9124;48.144;17.098;2023-02-28T22:16:14;0.90;52.00
17998;DHT22;9124;48.144;17.098;2023-02-28T22:19:51;0.90;52.10
17998;DHT22;9124;48.144;17.098;2023-02-28T22:23:27;0.80;52.10
17998;DHT22;9124;48.144;17.098;2023-02-28T22:27:04;0.80;52.20
17998;DHT22;9124;48.144;17.098;2023-02-28T22:30:40;0.70;52.20
17998;DHT22;9124;48.144;17.098;2023-02-28T22:34:18;0.70;52.30
17998;DHT22;9124;48.144;17.098;2023-02-28T22:37:55;0.70;52.40
17998;DHT22;9124;48.144;17.098;2023-02-28T22:41:32;0.70;52.40
17998;DHT22;9124;48.144;17.098;2023-02-28T22:45:08;0.70;52.50
17998;DHT22;9124;48.144;17.098;2023-02-28T22:48:45;0.60;52.50
17998;DHT22;9124;48.144;17.098;2023-02-28T22:52:23;0.60;52.70
17998;DHT22;9124;48.144;17.098;2023-02-28T22:56:00;0.60;52.70
17998;DHT22;9124;48.144;17.098;2023-02-28T22:59:37;0.60;52.80
17998;DHT22;9124;48.144;17.098;2023-02-28T23:03:13;0.60;52.80
17998;DHT22;9124;48.144;17.098;2023-02-28T23:06:49;0.60;52.90
17998;DHT22;9124;48.144;17.098;2023-02-28T23:10:26;0.60;52.90
17998;DHT22;9124;48.144;17.098;2023-02-28T23:14:02;0.60;53.00
17998;DHT22;9124;48.144;17.098;2023-02-28T23:17:39;0.70;53.00
17998;DHT22;9124;48.144;17.098;2023-02-28T23:21:15;0.70;53.10
17998;DHT22;9124;48.144;17.098;2023-02-28T23:24:51;0.70;53.20
17998;DHT22;9124;48.144;17.098;2023-02-28T23:28:29;0.70;53.10
17998;DHT22;9124;48.144;17.098;2023-02-28T23:32:06;0.60;53.20
17998;DHT22;9124;48.144;17.098;2023-02-28T23:35:43;0.60;53.20
17998;DHT22;9124;48.144;17.098;2023-02-28T23:39:20;0.60;53.30
17998;DHT22;9124;48.144;17.098;2023-02-28T23:42:56;0.60;53.40
17998;DHT22;9124;48.144;17.098;2023-02-28T23:46:33;0.50;53.40
17998;DHT22;9124;48.144;17.098;2023-02-28T23:50:09;0.50;53.50
17998;DHT22;9124;48.144;17.098;2023-02-28T23:53:49;0.50;53.60
17998;DHT22;9124;48.144;17.098;2023-02-28T23:57:26;0.50;53.60
